Terminal Aerodrome Forecast
Issued by NWS Missoula, MT

Home | Current Version | Previous Version | Text Only | Print | Product List | Glossary On
Versions: 1 2 3 4 5 6 7 8 9 10 11 12 13 14 15 16 17
000
FTUS45 KMSO 301726
TAFGPI
TAF
KGPI 301726Z 3018/3118 00000KT 6SM BR FEW004 SCT120
     FM302000 08005KT P6SM SCT120 OVC150
     FM310400 00000KT 4SM BR SCT001=

USA.gov is the U.S. government's official web portal to all federal, state and local government web resources and services.